createdAt,value
2022-09-17T00:01:41.823Z,100836.06
2022-09-17T00:04:11.307Z,100834.34
2022-09-17T00:06:38.903Z,100834.19
2022-09-17T00:09:07.323Z,100835.06
2022-09-17T00:11:36.597Z,100833.31
2022-09-17T00:14:05.032Z,100830.59
2022-09-17T00:16:35.493Z,100823.34
2022-09-17T00:19:04.420Z,100827.97
2022-09-17T00:21:32.783Z,100833.47
2022-09-17T00:24:01.157Z,100832.59
2022-09-17T00:26:29.180Z,100833.47
2022-09-17T00:28:57.935Z,100836.22
2022-09-17T00:31:26.319Z,100833.63
2022-09-17T00:33:55.611Z,100838.09
2022-09-17T00:36:23.646Z,100844.59
2022-09-17T00:38:51.563Z,100848.22
2022-09-17T00:41:19.392Z,100847.34
2022-09-17T00:43:48.153Z,100842.72
2022-09-17T00:46:26.996Z,100854.72
2022-09-17T00:48:56.764Z,100856.59
2022-09-17T00:51:28.568Z,100857.47
2022-09-17T00:53:56.881Z,100857.47
2022-09-17T00:56:26.660Z,100857.47
2022-09-17T00:58:54.833Z,100855.72
2022-09-17T01:01:22.473Z,100861.22
2022-09-17T01:03:50.418Z,100863.84
2022-09-17T01:06:23.350Z,100856.78
2022-09-17T01:08:58.412Z,100865.84
2022-09-17T01:11:32.252Z,100860.34
2022-09-17T01:14:06.489Z,100865.84
2022-09-17T01:16:38.729Z,100860.53
2022-09-17T01:19:13.776Z,100858.66
2022-09-17T01:21:51.300Z,100863.28
2022-09-17T01:24:40.159Z,100859.81
2022-09-17T01:27:21.720Z,100867.19
2022-09-17T01:29:57.224Z,100868.06
2022-09-17T01:32:30.648Z,100856.06
2022-09-17T01:35:02.213Z,100870.78
2022-09-17T01:37:33.114Z,100869.94
2022-09-17T01:40:03.220Z,100868.06
2022-09-17T01:42:36.412Z,100860.81
2022-09-17T01:45:07.095Z,100869.06
2022-09-17T01:47:38.751Z,100869.06
2022-09-17T01:50:09.400Z,100862.69
2022-09-17T01:52:40.489Z,100874.56
2022-09-17T01:55:10.007Z,100876.28
2022-09-17T01:57:39.847Z,100862.69
2022-09-17T02:00:09.663Z,100871.81
2022-09-17T02:02:43.905Z,100869.06
2022-09-17T02:05:16.006Z,100865.59
2022-09-17T02:07:46.284Z,100876.56
2022-09-17T02:10:15.604Z,100876.44
2022-09-17T02:12:46.811Z,100870.22
2022-09-17T02:15:18.155Z,100873.97
2022-09-17T02:17:49.619Z,100875.84
2022-09-17T02:20:22.713Z,100878.78
2022-09-17T02:22:53.621Z,100877.91
2022-09-17T02:25:23.268Z,100880.78
2022-09-17T02:27:53.921Z,100870.81
2022-09-17T02:30:21.524Z,100871.81
2022-09-17T02:32:50.968Z,100872.84
2022-09-17T02:35:19.546Z,100869.22
2022-09-17T02:37:47.097Z,100876.59
2022-09-17T02:40:16.287Z,100864.91
2022-09-17T02:42:53.611Z,100864.91
2022-09-17T02:45:28.106Z,100879.66
2022-09-17T02:48:07.364Z,100873.28
2022-09-17T02:50:44.989Z,100869.69
2022-09-17T02:53:20.769Z,100869.69
2022-09-17T02:55:52.314Z,100871.56
2022-09-17T02:58:24.795Z,100880.66
2022-09-17T03:00:55.256Z,100878.06
2022-09-17T03:03:27.609Z,100889.91
2022-09-17T03:05:56.284Z,100879.94
2022-09-17T03:08:29.863Z,100870.97
2022-09-17T03:10:57.536Z,100888.31
2022-09-17T03:13:25.217Z,100887.44
2022-09-17T03:15:53.018Z,100892.06
2022-09-17T03:18:20.713Z,100889.31
2022-09-17T03:23:37.740Z,100884.97
2022-09-17T03:26:05.635Z,100894.22
2022-09-17T03:28:33.323Z,100885.13
2022-09-17T03:31:01.707Z,100887.00
2022-09-17T03:33:29.351Z,100886.28
2022-09-17T03:35:56.953Z,100887.16
2022-09-17T03:38:24.640Z,100883.53
2022-09-17T03:41:00.335Z,100885.41
2022-09-17T03:43:28.157Z,100888.16
2022-09-17T03:45:56.486Z,100893.63
2022-09-17T03:48:24.263Z,100887.28
2022-09-17T03:50:51.942Z,100891.06
2022-09-17T03:53:19.831Z,100892.78
2022-09-17T03:55:47.567Z,100891.91
2022-09-17T03:58:16.793Z,100894.66
2022-09-17T04:00:44.439Z,100896.38
2022-09-17T04:03:13.390Z,100892.78
2022-09-17T04:05:41.066Z,100891.06
2022-09-17T04:08:08.777Z,100906.50
2022-09-17T04:10:36.407Z,100897.41
2022-09-17T04:13:04.146Z,100892.94
2022-09-17T04:15:33.108Z,100899.44
2022-09-17T04:18:00.772Z,100905.81
2022-09-17T04:20:29.055Z,100901.31
2022-09-17T04:22:59.209Z,100900.59
2022-09-17T04:25:26.833Z,100912.44
2022-09-17T04:27:54.796Z,100913.44
2022-09-17T04:30:23.121Z,100908.97
2022-09-17T04:32:54.057Z,100915.31
2022-09-17T04:35:23.158Z,100911.72
2022-09-17T04:37:54.933Z,100916.34
2022-09-17T04:40:23.664Z,100910.84
2022-09-17T04:42:53.715Z,100924.72
2022-09-17T04:45:22.015Z,100925.59
2022-09-17T04:47:50.932Z,100921.97
2022-09-17T04:50:20.108Z,100920.25
2022-09-17T04:52:48.428Z,100922.13
2022-09-17T04:55:16.854Z,100929.50
2022-09-17T04:57:49.920Z,100918.53
2022-09-17T05:00:18.932Z,100927.75
2022-09-17T05:02:50.741Z,100926.03
2022-09-17T05:05:20.311Z,100925.16
2022-09-17T05:07:48.473Z,100925.28
2022-09-17T05:10:18.078Z,100929.06
2022-09-17T05:12:49.105Z,100931.78
2022-09-17T05:15:19.769Z,100932.97
2022-09-17T05:17:50.416Z,100938.59
2022-09-17T05:20:18.794Z,100939.59
2022-09-17T05:22:49.275Z,100933.25
2022-09-17T05:25:17.977Z,100936.13
2022-09-17T05:27:46.385Z,100940.88
2022-09-17T05:30:15.694Z,100932.66
2022-09-17T05:32:46.695Z,100935.56
2022-09-17T05:35:15.705Z,100944.81
2022-09-17T05:37:43.787Z,100943.06
2022-09-17T05:40:19.078Z,100944.06
2022-09-17T05:42:48.585Z,100955.19
2022-09-17T05:45:16.730Z,100959.81
2022-09-17T05:47:50.693Z,100965.28
2022-09-17T05:50:19.410Z,100961.69
2022-09-17T05:52:49.614Z,100969.91
2022-09-17T05:55:22.455Z,100958.94
2022-09-17T05:57:56.161Z,100967.03
2022-09-17T06:00:30.116Z,100974.25
2022-09-17T06:02:59.378Z,100983.38
2022-09-17T06:05:27.486Z,100985.84
2022-09-17T06:07:55.646Z,100976.72
2022-09-17T06:10:29.439Z,100984.66
2022-09-17T06:13:36.527Z,100986.41
2022-09-17T06:16:22.155Z,100983.50
2022-09-17T06:34:41.090Z,101007.22
2022-09-17T06:44:27.073Z,101005.34
2022-09-17T06:47:02.987Z,101003.47
2022-09-17T06:49:37.414Z,101008.94
2022-09-17T06:52:10.488Z,101004.34
2022-09-17T06:54:52.990Z,101007.06
2022-09-17T06:57:29.638Z,101004.34
2022-09-17T07:00:05.976Z,101010.38
2022-09-17T07:02:36.557Z,101012.72
2022-09-17T07:05:04.175Z,101012.28
2022-09-17T07:07:31.759Z,101015.31
2022-09-17T07:10:00.690Z,101010.13
2022-09-17T07:12:28.298Z,101023.31
2022-09-17T07:14:55.909Z,101015.34
2022-09-17T07:17:23.467Z,101017.25
2022-09-17T07:19:51.027Z,101022.72
2022-09-17T07:22:19.199Z,101014.03
2022-09-17T07:24:46.979Z,101008.78
2022-09-17T07:27:16.319Z,101004.56
2022-09-17T07:29:44.215Z,101002.94
2022-09-17T07:32:11.898Z,101011.25
2022-09-17T07:34:39.695Z,101003.94
2022-09-17T07:37:10.276Z,101008.47
2022-09-17T07:39:38.031Z,101005.28
2022-09-17T07:42:07.901Z,101012.09
2022-09-17T07:44:37.121Z,101004.06
2022-09-17T07:47:04.996Z,101008.78
2022-09-17T07:49:32.626Z,101000.53
2022-09-17T07:52:05.100Z,101008.13
2022-09-17T07:54:33.312Z,101012.59
2022-09-17T07:57:00.870Z,101013.72
2022-09-17T07:59:28.497Z,101022.28
2022-09-17T08:01:57.652Z,101010.97
2022-09-17T08:04:25.491Z,101014.41
2022-09-17T08:06:53.158Z,101013.59
2022-09-17T08:09:21.065Z,100999.25
2022-09-17T08:11:56.841Z,101005.16
2022-09-17T08:14:29.430Z,101009.66
2022-09-17T08:16:58.779Z,101011.75
2022-09-17T08:19:26.977Z,101018.47
2022-09-17T08:21:54.560Z,101006.19
2022-09-17T08:24:22.188Z,101016.19
2022-09-17T08:26:49.831Z,101010.66
2022-09-17T08:29:17.415Z,101003.59
2022-09-17T08:31:45.171Z,101001.16
2022-09-17T08:34:14.581Z,101008.78
2022-09-17T08:36:42.172Z,101014.50
2022-09-17T08:39:12.037Z,101020.38
2022-09-17T08:41:47.313Z,101020.53
2022-09-17T08:44:19.125Z,101028.84
2022-09-17T08:46:48.229Z,101021.56
2022-09-17T08:49:24.071Z,101015.19
2022-09-17T08:52:03.171Z,101019.84
2022-09-17T08:54:36.838Z,101015.19
2022-09-17T08:57:13.023Z,101014.13
2022-09-17T08:59:45.873Z,101012.41
2022-09-17T09:02:22.298Z,101013.28
2022-09-17T09:05:02.170Z,101017.94
2022-09-17T09:07:32.371Z,101021.41
2022-09-17T09:10:06.353Z,101027.63
2022-09-17T09:12:35.954Z,101021.22
2022-09-17T09:15:05.634Z,101014.84
2022-09-17T09:17:36.426Z,101013.81
2022-09-17T09:20:06.566Z,101021.06
2022-09-17T09:22:39.705Z,101018.09
2022-09-17T09:25:14.629Z,101024.34
2022-09-17T09:27:50.031Z,101015.69
2022-09-17T09:30:23.449Z,101020.38
2022-09-17T09:32:55.396Z,101014.84
2022-09-17T09:35:25.462Z,101012.94
2022-09-17T09:37:56.965Z,101008.44
2022-09-17T09:40:31.753Z,101017.94
2022-09-17T09:43:02.131Z,101010.50
2022-09-17T09:45:39.021Z,101007.75
2022-09-17T09:48:11.497Z,101019.31
2022-09-17T09:51:05.579Z,101009.78
2022-09-17T09:53:42.077Z,101010.16
2022-09-17T09:56:19.328Z,101021.53
2022-09-17T09:58:46.968Z,101019.31
2022-09-17T10:01:15.628Z,101012.38
2022-09-17T10:03:46.027Z,101011.34
2022-09-17T10:06:15.661Z,101013.06
2022-09-17T10:08:46.138Z,100999.22
2022-09-17T10:11:21.253Z,101006.66
2022-09-17T10:13:48.907Z,100995.75
2022-09-17T10:16:17.854Z,101006.16
2022-09-17T10:18:45.726Z,101009.09
2022-09-17T10:21:22.128Z,100998.38
2022-09-17T10:23:50.732Z,100992.16
2022-09-17T10:26:23.646Z,100998.06
2022-09-17T10:28:52.464Z,100996.66
2022-09-17T10:31:20.202Z,100985.09
2022-09-17T10:33:56.987Z,100987.34
2022-09-17T10:36:40.257Z,100968.16
2022-09-17T10:39:26.926Z,100987.88
2022-09-17T10:41:55.234Z,100993.06
2022-09-17T10:44:23.622Z,100983.38
2022-09-17T10:46:52.276Z,100987.69
2022-09-17T10:49:27.015Z,100981.13
2022-09-17T10:52:04.825Z,100980.78
2022-09-17T10:54:49.617Z,100970.22
2022-09-17T10:57:22.756Z,100970.56
2022-09-17T11:00:04.537Z,100967.81
2022-09-17T11:02:43.634Z,100963.16
2022-09-17T11:05:24.487Z,100955.56
2022-09-17T11:08:01.553Z,100968.16
2022-09-17T11:10:32.168Z,100953.00
2022-09-17T11:13:07.965Z,100959.00
2022-09-17T11:15:41.970Z,100959.38
2022-09-17T11:18:28.557Z,100956.94
2022-09-17T11:21:05.036Z,100969.41
2022-09-17T11:23:43.543Z,100969.88
2022-09-17T11:26:14.241Z,100964.03
2022-09-17T11:28:48.197Z,100965.75
2022-09-17T11:31:24.399Z,100974.06
2022-09-17T11:34:02.578Z,100976.13
2022-09-17T11:36:32.439Z,100979.06
2022-09-17T11:39:07.216Z,100982.16
2022-09-17T11:41:38.847Z,100991.00
2022-09-17T11:44:10.237Z,100990.81
2022-09-17T11:46:41.960Z,100992.69
2022-09-17T11:49:13.686Z,100984.22
2022-09-17T11:51:44.861Z,100987.00
2022-09-17T11:54:21.841Z,100990.25
2022-09-17T11:56:51.792Z,100987.31
2022-09-17T11:59:21.245Z,100990.41
2022-09-17T12:01:53.962Z,100991.44
2022-09-17T12:04:30.154Z,100990.63
2022-09-17T12:07:01.361Z,100994.03
2022-09-17T12:09:33.112Z,100982.66
2022-09-17T12:12:02.302Z,100984.91
2022-09-17T12:14:32.100Z,100988.03
2022-09-17T12:17:01.132Z,100982.13
2022-09-17T12:19:32.588Z,100973.19
2022-09-17T12:22:02.907Z,100967.28
2022-09-17T12:24:32.282Z,100979.72
2022-09-17T12:27:07.216Z,100976.47
2022-09-17T12:29:44.992Z,100977.00
2022-09-17T12:32:25.539Z,100981.13
2022-09-17T12:34:58.113Z,101004.81
2022-09-17T12:37:28.556Z,101047.88
2022-09-17T12:40:23.362Z,101046.84
2022-09-17T12:43:06.037Z,101056.31
2022-09-17T12:45:37.448Z,101055.28
2022-09-17T12:48:19.880Z,101017.56
2022-09-17T12:50:52.636Z,101005.81
2022-09-17T12:53:24.285Z,100997.84
2022-09-17T12:55:59.473Z,101000.97
2022-09-17T12:58:35.845Z,100997.50
2022-09-17T13:01:05.787Z,100986.59
2022-09-17T13:03:35.888Z,100982.06
2022-09-17T13:06:21.950Z,100976.38
2022-09-17T13:09:13.286Z,100975.31
2022-09-17T13:11:59.817Z,100980.78
2022-09-17T13:14:34.125Z,100976.97
2022-09-17T13:17:06.181Z,100971.06
2022-09-17T13:19:36.649Z,100966.94
2022-09-17T13:22:07.004Z,100970.88
2022-09-17T13:24:35.928Z,100948.28
2022-09-17T13:27:04.904Z,100961.38
2022-09-17T13:29:51.160Z,100956.88
2022-09-17T13:32:33.657Z,100949.63
2022-09-17T13:35:27.211Z,100949.63
2022-09-17T13:37:57.518Z,100954.81
2022-09-17T13:40:26.623Z,100950.19
2022-09-17T13:42:56.326Z,100950.69
2022-09-17T13:45:24.859Z,100937.59
2022-09-17T13:47:54.225Z,100937.25
2022-09-17T13:50:28.590Z,100923.97
2022-09-17T13:52:56.999Z,100926.41
2022-09-17T13:55:35.576Z,100935.19
2022-09-17T13:58:04.979Z,100930.06
2022-09-17T14:00:49.532Z,100926.97
2022-09-17T14:03:37.185Z,100941.31
2022-09-17T14:06:21.842Z,100958.44
2022-09-17T14:08:54.487Z,100958.94
2022-09-17T14:11:43.140Z,100985.53
2022-09-17T14:14:40.713Z,101023.84
2022-09-17T14:17:09.083Z,101015.03
2022-09-17T14:19:45.750Z,100990.50
2022-09-17T14:22:17.658Z,100993.06
2022-09-17T14:24:52.481Z,100992.00
2022-09-17T14:27:28.608Z,100988.16
2022-09-17T14:30:13.706Z,100991.59
2022-09-17T14:32:43.759Z,100992.09
2022-09-17T14:35:19.939Z,100999.16
2022-09-17T14:37:50.024Z,100992.06
2022-09-17T14:40:20.463Z,100994.13
2022-09-17T14:42:50.414Z,100994.47
2022-09-17T14:45:20.298Z,100983.56
2022-09-17T14:47:48.035Z,100985.81
2022-09-17T14:50:21.081Z,100968.72
2022-09-17T14:52:49.084Z,100969.03
2022-09-17T14:55:17.727Z,100963.88
2022-09-17T14:57:48.100Z,100974.03
2022-09-17T15:00:21.826Z,100972.31
2022-09-17T15:02:55.692Z,100963.47
2022-09-17T15:05:26.147Z,100959.69
2022-09-17T15:08:07.510Z,100957.81
2022-09-17T15:10:37.270Z,100966.06
2022-09-17T15:13:13.010Z,100964.34
2022-09-17T15:15:40.733Z,100967.09
2022-09-17T15:18:08.654Z,100972.47
2022-09-17T15:20:36.469Z,100970.72
2022-09-17T15:23:10.589Z,100966.06
2022-09-17T15:25:39.408Z,100964.19
2022-09-17T15:28:16.868Z,100964.19
2022-09-17T15:30:46.491Z,100966.06
2022-09-17T15:33:15.326Z,100959.69
2022-09-17T15:35:58.917Z,100968.13
2022-09-17T15:38:28.061Z,100971.75
2022-09-17T15:40:55.768Z,100968.13
2022-09-17T15:43:27.590Z,100968.31
2022-09-17T15:45:55.710Z,100973.84
2022-09-17T15:48:25.876Z,100965.72
2022-09-17T15:50:54.381Z,100972.25
2022-09-17T15:53:23.527Z,100965.00
2022-09-17T15:56:03.766Z,100978.81
2022-09-17T15:58:36.818Z,100973.28
2022-09-17T16:01:48.484Z,100977.94
2022-09-17T16:04:19.073Z,100973.44
2022-09-17T16:06:49.230Z,100987.41
2022-09-17T16:09:35.492Z,100986.53
2022-09-17T16:12:03.191Z,100993.09
2022-09-17T16:14:32.106Z,100986.88
2022-09-17T16:16:59.824Z,100986.00
2022-09-17T16:19:27.417Z,100988.91
2022-09-17T16:21:55.143Z,100989.94
2022-09-17T16:24:22.731Z,100989.25
2022-09-17T16:26:50.416Z,100995.97
2022-09-17T16:29:18.591Z,100997.16
2022-09-17T16:31:47.715Z,100990.91
2022-09-17T16:34:15.337Z,101002.09
2022-09-17T16:36:43.082Z,101009.66
2022-09-17T16:39:10.702Z,101012.59
2022-09-17T16:41:38.468Z,101013.75
2022-09-17T16:44:06.130Z,101011.16
2022-09-17T16:46:33.984Z,101014.09
2022-09-17T16:49:03.210Z,101023.41
2022-09-17T16:51:31.000Z,101019.94
2022-09-17T16:53:58.923Z,101014.56
2022-09-17T16:56:26.562Z,101009.22
2022-09-17T16:58:56.785Z,101011.97
2022-09-17T17:01:24.518Z,101022.31
2022-09-17T17:03:53.641Z,101020.56
2022-09-17T17:06:22.813Z,101019.88
2022-09-17T17:08:50.422Z,101016.41
2022-09-17T17:11:18.620Z,101024.97
2022-09-17T17:13:46.444Z,101020.50
2022-09-17T17:16:15.358Z,101013.25
2022-09-17T17:18:44.480Z,101021.69
2022-09-17T17:21:13.072Z,101014.44
2022-09-17T17:23:43.456Z,101022.00
2022-09-17T17:26:11.112Z,101019.41
2022-09-17T17:28:38.724Z,101017.69
2022-09-17T17:31:06.874Z,101020.59
2022-09-17T17:33:34.819Z,101019.03
2022-09-17T17:36:07.505Z,101022.06
2022-09-17T17:38:36.316Z,101023.13
2022-09-17T17:41:07.024Z,101027.06
2022-09-17T17:43:34.722Z,101031.84
2022-09-17T17:46:02.791Z,101030.28
2022-09-17T17:48:31.010Z,101033.22
2022-09-17T17:51:02.238Z,101035.25
2022-09-17T17:53:30.319Z,101041.94
2022-09-17T17:55:58.908Z,101041.22
2022-09-17T17:58:28.083Z,101034.00
2022-09-17T18:00:55.822Z,101042.41
2022-09-17T18:03:25.142Z,101046.19
2022-09-17T18:05:54.025Z,101045.47
2022-09-17T18:08:21.625Z,101045.78
2022-09-17T18:10:52.621Z,101056.66
2022-09-17T18:13:20.330Z,101054.03
2022-09-17T18:15:55.906Z,101056.13
2022-09-17T18:18:24.047Z,101052.50
2022-09-17T18:20:53.276Z,101071.06
2022-09-17T18:23:21.053Z,101067.44
2022-09-17T18:25:55.519Z,101065.69
2022-09-17T18:28:23.525Z,101065.84
2022-09-17T18:30:51.146Z,101074.28
2022-09-17T18:33:21.456Z,101070.81
2022-09-17T18:35:49.222Z,101075.47
2022-09-17T18:38:17.023Z,101070.97
2022-09-17T18:40:45.031Z,101075.75
2022-09-17T18:43:12.780Z,101079.53
2022-09-17T20:04:07.049Z,101107.09
2022-09-17T20:06:35.619Z,101110.59
2022-09-17T20:09:03.731Z,101110.91
2022-09-17T20:11:31.685Z,101115.97
2022-09-17T20:14:02.974Z,101107.31
2022-09-17T20:16:31.387Z,101111.78
2022-09-17T20:18:59.689Z,101108.16
2022-09-17T20:21:30.984Z,101110.03
2022-09-17T20:23:59.759Z,101116.66
2022-09-17T20:26:28.244Z,101112.50
2022-09-17T20:28:56.257Z,101116.41
2022-09-17T20:31:25.405Z,101115.06
2022-09-17T20:33:54.417Z,101106.38
2022-09-17T20:36:23.962Z,101115.03
2022-09-17T20:41:42.249Z,101103.75
2022-09-17T20:44:10.097Z,101105.16
2022-09-17T20:46:38.143Z,101107.63
2022-09-17T20:49:06.012Z,101107.50
2022-09-17T20:51:34.101Z,101119.38
2022-09-17T20:54:03.853Z,101112.66
2022-09-17T20:56:34.265Z,101112.53
2022-09-17T20:59:08.708Z,101120.63
2022-09-17T21:01:38.030Z,101119.03
2022-09-17T21:04:07.914Z,101128.03
2022-09-17T21:06:37.714Z,101138.03
2022-09-17T21:09:07.321Z,101127.00
2022-09-17T21:11:35.871Z,101128.03
2022-09-17T21:14:04.156Z,101125.41
2022-09-17T21:16:32.424Z,101123.38
2022-09-17T21:19:02.382Z,101128.91
2022-09-17T21:21:34.377Z,101135.41
2022-09-17T21:24:03.374Z,101131.94
2022-09-17T21:26:33.336Z,101129.75
2022-09-17T21:29:01.186Z,101137.28
2022-09-17T21:31:32.621Z,101130.78
2022-09-17T21:34:02.865Z,101128.91
2022-09-17T21:36:32.926Z,101131.66
2022-09-17T21:39:02.126Z,101137.28
2022-09-17T21:41:30.871Z,101128.16
2022-09-17T21:44:00.154Z,101129.91
2022-09-17T21:46:29.453Z,101134.53
2022-09-17T21:49:00.006Z,101141.94
2022-09-17T21:51:30.581Z,101142.06
2022-09-17T21:54:00.449Z,101137.59
2022-09-17T21:56:29.444Z,101138.44
2022-09-17T21:58:58.771Z,101143.25
2022-09-17T22:01:31.110Z,101150.66
2022-09-17T22:04:00.139Z,101148.19
2022-09-17T22:06:30.385Z,101146.28
2022-09-17T22:08:59.379Z,101151.06
2022-09-17T22:11:30.001Z,101148.47
2022-09-17T22:14:00.754Z,101145.88
2022-09-17T22:16:30.754Z,101152.41
2022-09-17T22:19:02.572Z,101145.16
2022-09-17T22:21:32.979Z,101151.81
2022-09-17T22:24:02.976Z,101143.72
2022-09-17T22:26:33.051Z,101151.97
2022-09-17T22:29:02.497Z,101151.28
2022-09-17T22:31:32.114Z,101146.78
2022-09-17T22:34:00.693Z,101146.06
2022-09-17T22:36:29.240Z,101146.19
2022-09-17T22:38:58.772Z,101149.81
2022-09-17T22:41:28.692Z,101145.31
2022-09-17T22:43:57.915Z,101145.47
2022-09-17T22:46:27.572Z,101149.22
2022-09-17T22:48:57.463Z,101148.38
2022-09-17T22:51:26.877Z,101141.28
2022-09-17T22:53:55.355Z,101140.41
2022-09-17T22:56:24.314Z,101136.06
2022-09-17T22:58:52.536Z,101142.59
2022-09-17T23:01:22.226Z,101137.94
2022-09-17T23:03:51.472Z,101143.59
2022-09-17T23:06:23.757Z,101141.72
2022-09-17T23:08:52.192Z,101129.28
2022-09-17T23:11:22.660Z,101128.13
2022-09-17T23:13:51.858Z,101127.41
2022-09-17T23:16:20.796Z,101128.41
2022-09-17T23:18:48.809Z,101127.97
2022-09-17T23:21:18.152Z,101123.16
2022-09-17T23:23:49.398Z,101124.19
2022-09-17T23:26:19.774Z,101132.59
2022-09-17T23:28:48.315Z,101140.13
2022-09-17T23:31:17.750Z,101128.41
2022-09-17T23:33:46.645Z,101127.53
2022-09-17T23:36:16.344Z,101119.41
2022-09-17T23:38:46.704Z,101130.41
2022-09-17T23:41:17.722Z,101119.41
2022-09-17T23:43:47.653Z,101128.69
2022-09-17T23:46:16.265Z,101115.97
2022-09-17T23:48:44.457Z,101125.22
2022-09-17T23:51:12.282Z,101125.22
2022-09-17T23:53:40.387Z,101124.38
2022-09-17T23:56:13.256Z,101118.72
2022-09-17T23:58:42.756Z,101122.47
